Terminal Aerodrome Forecast
Issued by NWS Charleston, WV

Current Version | Previous Version | Graphics & Text | Print | Product List | Glossary On
Versions: 1 2 3 4 5 6 7 8 9 10 11 12 13 14 15 16 17 18 19 20 21 22 23 24 25 26
000
FTUS41 KRLX 271728
TAFEKN
TAF
KEKN 271728Z 2718/2818 25006KT P6SM SCT025 BKN050
     FM272300 24004KT P6SM VCTS BKN035CB
     FM280200 VRB03KT P6SM SCT035
     FM281000 00000KT P6SM BKN035
     FM281400 VRB03KT P6SM VCTS BKN025CB
     FM281700 30006KT P6SM VCTS BKN035CB=

USA.gov is the U.S. government's official web portal to all federal, state and local government web resources and services.